Terminal Aerodrome Forecast
Issued by NWS

Home | Current Version | Previous Version | Text Only | Print | Product List | Glossary On
Versions: 1 2 3 4 5 6 7 8 9 10 11 12 13 14 15 16 17 18 19 20 21 22 23 24 25 26 27 28 29 30 31
000
FTUS42 KTBW 270327 AAA
TAFPGD
TAF AMD
KPGD 270327Z 2703/2724 20005KT P6SM FEW025 BKN100
     FM270900 20005KT P6SM SHRA VCTS SCT025CB BKN040 OVC100
     FM271300 20010KT P6SM SCT020 BKN040
     FM271600 24016G27KT P6SM SHRA VCTS BKN020CB BKN035
     FM272200 28015G25KT P6SM SCT025 BKN035=

USA.gov is the U.S. government's official web portal to all federal, state and local government web resources and services.